Time;durP1;ratioP1;P1;durP2;ratioP2;P2;SDS_P1;SDS_P2;PMS_P1;PMS_P2;Temp;Humidity;BMP_temperature;BMP_pressure;BME280_temperature;BME280_humidity;BME280_pressure;Samples;Min_cycle;Max_cycle;Signal;HPM_P1;HPM_P2
2022/09/14 00:00:16;;;;;;;6.20;1.88;;;;;;;12.21;100.00;100781.31;1249506;23;20094;-85
2022/09/14 00:00:47;;;;;;;4.85;2.20;;;;;;;12.21;100.00;100782.13;1249309;23;20027;-85
2022/09/14 00:01:40;;;;;;;5.05;2.10;;;;;;;12.24;100.00;100783.53;1253913;23;20271;-84
2022/09/14 00:02:11;;;;;;;4.03;1.80;;;;;;;12.22;100.00;100782.94;1254197;23;20026;-85
2022/09/14 00:02:45;;;;;;;8.77;2.22;;;;;;;12.21;100.00;100786.66;1255310;23;20019;-84
2022/09/14 00:03:17;;;;;;;5.03;2.15;;;;;;;12.23;100.00;100781.91;1248893;23;20300;-84
2022/09/14 00:03:59;;;;;;;3.40;1.70;;;;;;;12.26;100.00;100776.91;1242763;23;20509;-84
2022/09/14 00:04:31;;;;;;;4.20;2.00;;;;;;;12.30;100.00;100777.25;1243651;23;20417;-84
2022/09/14 00:05:03;;;;;;;5.40;1.83;;;;;;;12.28;100.00;100779.34;1240569;23;20064;-85
2022/09/14 00:05:35;;;;;;;2.80;1.70;;;;;;;12.24;100.00;100786.19;1240311;23;20023;-85
2022/09/14 00:06:08;;;;;;;6.07;2.33;;;;;;;12.19;100.00;100783.41;1238195;23;20019;-85
2022/09/14 00:06:40;;;;;;;6.88;2.08;;;;;;;12.20;100.00;100779.69;1244683;23;20032;-85
2022/09/14 00:07:12;;;;;;;2.00;1.60;;;;;;;12.25;100.00;100782.47;1238665;23;20073;-84
2022/09/14 00:07:43;;;;;;;8.25;2.08;;;;;;;12.26;100.00;100789.44;1242551;23;20047;-84
2022/09/14 00:08:15;;;;;;;6.18;1.50;;;;;;;12.27;100.00;100780.41;1235473;24;20106;-85
2022/09/14 00:08:51;;;;;;;7.25;2.15;;;;;;;12.29;100.00;100783.66;1238755;23;20498;-84
2022/09/14 00:09:23;;;;;;;4.70;2.60;;;;;;;12.29;100.00;100783.66;1243253;23;20023;-85
2022/09/14 00:09:55;;;;;;;4.28;1.70;;;;;;;12.39;100.00;100786.59;1246622;23;20015;-84
2022/09/14 00:10:26;;;;;;;3.40;2.03;;;;;;;12.39;100.00;100786.59;1255261;23;20019;-85
2022/09/14 00:11:03;;;;;;;3.60;2.08;;;;;;;12.34;100.00;100791.81;1256403;23;20034;-84
2022/09/14 00:11:37;;;;;;;8.68;1.95;;;;;;;12.29;100.00;100786.31;1255391;23;20280;-82
2022/09/14 00:12:09;;;;;;;5.35;1.80;;;;;;;12.27;100.00;100783.06;1249219;23;20316;-82
2022/09/14 00:12:40;;;;;;;4.30;2.30;;;;;;;12.20;100.00;100788.50;1247317;23;20275;-82
2022/09/14 00:13:13;;;;;;;4.25;2.15;;;;;;;12.20;100.00;100779.69;1244913;23;20095;-82
2022/09/14 00:13:46;;;;;;;4.45;1.88;;;;;;;12.15;100.00;100787.56;1243742;23;20260;-82
2022/09/14 00:14:18;;;;;;;4.72;2.20;;;;;;;12.12;100.00;100780.03;1230367;24;20261;-84
2022/09/14 00:14:50;;;;;;;4.35;2.10;;;;;;;12.17;100.00;100788.16;1233277;24;20067;-85
2022/09/14 00:15:21;;;;;;;2.50;1.60;;;;;;;12.13;100.00;100784.31;1230605;24;20043;-84
2022/09/14 00:15:53;;;;;;;4.43;1.60;;;;;;;12.07;100.00;100789.53;1238886;23;20261;-85
2022/09/14 00:16:30;;;;;;;7.00;1.85;;;;;;;12.07;100.00;100780.72;1243700;23;20288;-85
2022/09/14 00:17:01;;;;;;;3.95;2.15;;;;;;;12.10;100.00;100785.59;1233340;24;20815;-85
2022/09/14 00:17:33;;;;;;;5.15;1.80;;;;;;;12.14;100.00;100780.59;1241727;23;20328;-85
2022/09/14 00:18:06;;;;;;;4.68;2.00;;;;;;;12.13;100.00;100785.13;1249094;23;20260;-84
2022/09/14 00:18:38;;;;;;;1.52;1.38;;;;;;;12.06;100.00;100785.22;1256310;23;20254;-85
2022/09/14 00:19:20;;;;;;;4.00;1.63;;;;;;;12.06;100.00;100789.75;1253975;23;20354;-84
2022/09/14 00:19:52;;;;;;;2.95;2.03;;;;;;;11.99;100.00;100779.16;1243420;23;20271;-84
2022/09/14 00:20:24;;;;;;;9.38;2.08;;;;;;;12.06;100.00;100785.22;1246560;23;20012;-83
2022/09/14 00:21:02;;;;;;;5.25;2.13;;;;;;;12.05;100.00;100783.59;1243544;23;20272;-82
2022/09/14 00:21:35;;;;;;;3.15;1.83;;;;;;;11.99;100.00;100773.81;1235838;24;20364;-82
2022/09/14 00:22:07;;;;;;;4.15;1.50;;;;;;;11.94;100.00;100780.88;1237273;24;20325;-82
2022/09/14 00:22:38;;;;;;;3.53;1.70;;;;;;;11.89;100.00;100786.91;1245630;23;20054;-82
2022/09/14 00:23:10;;;;;;;4.03;1.70;;;;;;;11.94;100.00;100784.34;1245403;23;20016;-81
2022/09/14 00:23:42;;;;;;;3.03;1.60;;;;;;;11.93;100.00;100780.06;1249874;23;20384;-82
2022/09/14 00:24:13;;;;;;;6.93;2.13;;;;;;;11.93;100.00;100777.41;1248780;23;20787;-82
2022/09/14 00:24:45;;;;;;;3.95;1.67;;;;;;;11.91;100.00;100774.13;1244288;23;20047;-81
2022/09/14 00:25:17;;;;;;;5.28;1.83;;;;;;;11.96;100.00;100784.13;1250146;23;20038;-82
2022/09/14 00:25:48;;;;;;;2.20;1.85;;;;;;;11.98;100.00;100777.53;1250441;23;20114;-82
2022/09/14 00:26:21;;;;;;;2.38;1.83;;;;;;;11.98;100.00;100771.38;1249125;23;20739;-82
2022/09/14 00:26:53;;;;;;;4.55;2.20;;;;;;;11.97;100.00;100775.91;1247320;23;20026;-82
2022/09/14 00:27:24;;;;;;;6.32;2.65;;;;;;;11.98;100.00;100777.53;1244191;23;20019;-82
2022/09/14 00:27:56;;;;;;;4.00;2.30;;;;;;;12.00;100.00;100780.78;1244693;23;20018;-81
2022/09/14 00:28:28;;;;;;;2.08;1.80;;;;;;;11.98;100.00;100779.38;1249421;23;20015;-82
2022/09/14 00:29:03;;;;;;;5.35;2.50;;;;;;;11.92;100.00;100770.44;1247431;23;20027;-82
2022/09/14 00:29:35;;;;;;;6.85;2.58;;;;;;;11.89;100.00;100770.88;1251124;23;20256;-82
2022/09/14 00:30:07;;;;;;;2.33;1.67;;;;;;;11.91;100.00;100771.47;1255367;23;20094;-81
2022/09/14 00:30:41;;;;;;;3.47;1.90;;;;;;;11.88;100.00;100769.25;1261305;23;20022;-82
2022/09/14 00:31:13;;;;;;;4.82;1.60;;;;;;;11.84;100.00;100767.28;1256353;23;20076;-82
2022/09/14 00:31:45;;;;;;;5.75;1.88;;;;;;;11.84;100.00;100767.28;1252770;23;20271;-81
2022/09/14 00:32:17;;;;;;;3.50;1.75;;;;;;;11.82;100.00;100772.84;1240112;23;20027;-82
2022/09/14 00:32:49;;;;;;;5.65;1.70;;;;;;;11.79;100.00;100767.94;1238428;23;21203;-82
2022/09/14 00:33:21;;;;;;;4.93;2.28;;;;;;;11.76;100.00;100771.81;1238640;23;20082;-82
2022/09/14 00:33:53;;;;;;;5.38;1.70;;;;;;;11.76;100.00;100768.34;1239581;23;20257;-82
2022/09/14 00:34:24;;;;;;;1.92;1.38;;;;;;;11.71;100.00;100774.38;1249195;23;20040;-82
2022/09/14 00:34:56;;;;;;;3.17;1.83;;;;;;;11.75;100.00;100762.19;1250367;23;20043;-82
2022/09/14 00:35:27;;;;;;;3.70;1.83;;;;;;;11.77;100.00;100764.63;1256040;23;20270;-81
2022/09/14 00:36:04;;;;;;;4.60;2.03;;;;;;;11.75;100.00;100756.03;1254932;23;20270;-82
2022/09/14 00:36:41;;;;;;;3.17;1.80;;;;;;;11.78;100.00;100761.00;1255242;23;20735;-82
2022/09/14 00:37:12;;;;;;;5.80;2.20;;;;;;;11.76;100.00;100753.16;1248845;23;20098;-82
2022/09/14 00:37:48;;;;;;;2.45;2.13;;;;;;;11.78;100.00;100761.00;1252336;23;20746;-82
2022/09/14 00:38:19;;;;;;;6.25;2.15;;;;;;;11.76;100.00;100755.00;1254989;23;20259;-81
2022/09/14 00:38:54;;;;;;;4.35;1.35;;;;;;;11.70;100.00;100753.25;1256593;23;20753;-82
2022/09/14 00:39:27;;;;;;;4.20;1.83;;;;;;;11.67;100.00;100745.69;1261531;23;20598;-82
2022/09/14 00:39:59;;;;;;;4.97;2.10;;;;;;;11.61;100.00;100744.75;1261362;23;20080;-82
2022/09/14 00:40:30;;;;;;;3.38;2.55;;;;;;;11.56;100.00;100747.28;1261734;23;20019;-82
2022/09/14 00:41:04;;;;;;;5.97;2.22;;;;;;;11.53;100.00;100753.06;1252695;23;20279;-84
2022/09/14 00:41:39;;;;;;;3.70;2.00;;;;;;;11.50;100.00;100742.81;1249237;23;20596;-82
2022/09/14 00:42:14;;;;;;;17.33;2.55;;;;;;;11.52;100.00;100748.78;1243699;23;20015;-82
2022/09/14 00:42:46;;;;;;;3.17;2.08;;;;;;;11.51;100.00;100741.00;1239667;23;20680;-84
2022/09/14 00:43:17;;;;;;;3.15;1.75;;;;;;;11.52;100.00;100745.28;1243624;23;20268;-85
2022/09/14 00:43:54;;;;;;;3.17;1.67;;;;;;;11.49;100.00;100737.72;1250521;23;20263;-84
2022/09/14 00:44:26;;;;;;;4.25;2.55;;;;;;;11.47;100.00;100740.59;1249267;23;20030;-84
2022/09/14 00:45:01;;;;;;;2.58;2.03;;;;;;;11.47;100.00;100745.94;1251218;23;20755;-84
2022/09/14 00:45:33;;;;;;;5.22;3.05;;;;;;;11.41;100.00;100739.66;1249269;23;20015;-84
2022/09/14 00:46:04;;;;;;;4.95;2.13;;;;;;;11.40;100.00;100742.53;1256676;23;20504;-84
2022/09/14 00:46:41;;;;;;;3.05;1.65;;;;;;;11.42;100.00;100741.28;1255495;23;20266;-85
2022/09/14 00:47:14;;;;;;;3.40;1.65;;;;;;;11.41;100.00;100741.50;1251167;23;20303;-84
2022/09/14 00:47:48;;;;;;;4.85;1.45;;;;;;;11.39;100.00;100736.41;1247466;23;20259;-84
2022/09/14 00:48:22;;;;;;;3.45;2.10;;;;;;;11.43;100.00;100742.91;1239954;23;20317;-82
2022/09/14 00:48:56;;;;;;;3.03;1.73;;;;;;;11.46;100.00;100737.13;1243470;23;20264;-82
2022/09/14 00:49:37;;;;;;;6.50;2.40;;;;;;;11.48;100.00;100736.09;1239315;23;20682;-82
2022/09/14 00:50:09;;;;;;;2.30;1.67;;;;;;;11.49;100.00;100740.38;1244810;23;20594;-82
2022/09/14 00:50:40;;;;;;;4.50;2.58;;;;;;;11.51;100.00;100741.81;1252389;23;20463;-84
2022/09/14 00:51:13;;;;;;;2.28;1.90;;;;;;;11.46;100.00;100737.13;1251756;23;20766;-84
2022/09/14 00:51:48;;;;;;;3.78;1.80;;;;;;;11.42;100.00;100740.47;1249480;23;20403;-84
2022/09/14 00:52:25;;;;;;;1.88;1.77;;;;;;;11.41;100.00;100739.66;1235616;24;20272;-82
2022/09/14 00:52:57;;;;;;;4.05;1.80;;;;;;;11.45;100.00;100740.81;1234613;24;20023;-82
2022/09/14 00:53:29;;;;;;;3.08;1.45;;;;;;;11.44;100.00;100741.88;1240010;23;20405;-82
2022/09/14 00:54:02;;;;;;;2.42;1.88;;;;;;;11.53;100.00;100737.06;1235501;23;20253;-82
2022/09/14 00:54:40;;;;;;;3.92;1.60;;;;;;;11.57;100.00;100732.09;1238520;23;20264;-82
2022/09/14 00:55:15;;;;;;;4.13;1.67;;;;;;;11.58;100.00;100739.06;1239380;23;20261;-82
2022/09/14 00:55:47;;;;;;;7.13;1.92;;;;;;;11.61;100.00;100738.59;1241367;23;20275;-82
2022/09/14 00:56:19;;;;;;;4.22;1.60;;;;;;;11.64;100.00;100738.13;1243508;23;20264;-84
2022/09/14 00:56:50;;;;;;;1.63;1.50;;;;;;;11.68;100.00;100736.66;1244909;23;20027;-84
2022/09/14 00:57:23;;;;;;;2.00;1.60;;;;;;;11.72;100.00;100735.16;1245016;23;20606;-84
2022/09/14 00:57:55;;;;;;;3.25;1.67;;;;;;;11.75;100.00;100729.34;1255545;23;20572;-84
2022/09/14 00:58:27;;;;;;;3.78;1.90;;;;;;;11.74;100.00;100739.22;1258934;23;20281;-84
2022/09/14 00:59:03;;;;;;;3.17;1.60;;;;;;;11.80;100.00;100739.41;1262233;23;20258;-84
2022/09/14 00:59:37;;;;;;;3.42;1.88;;;;;;;11.84;100.00;100743.25;1257136;23;20931;-84
2022/09/14 01:00:10;;;;;;;3.67;2.00;;;;;;;11.85;100.00;100727.00;1253264;23;20259;-84
2022/09/14 01:00:41;;;;;;;4.15;1.58;;;;;;;11.85;100.00;100728.88;1243518;23;20027;-84
2022/09/14 01:01:14;;;;;;;4.93;2.03;;;;;;;11.84;100.00;100728.06;1246348;23;20372;-84
2022/09/14 01:01:46;;;;;;;2.92;2.00;;;;;;;11.84;100.00;100732.56;1256636;23;20046;-84
2022/09/14 01:02:20;;;;;;;5.90;2.28;;;;;;;11.90;100.00;100727.13;1256363;23;20011;-84
2022/09/14 01:02:52;;;;;;;5.40;2.05;;;;;;;11.84;100.00;100722.72;1254897;23;20326;-84
2022/09/14 01:03:24;;;;;;;2.88;2.05;;;;;;;11.88;100.00;100721.22;1255350;23;20282;-84
2022/09/14 01:03:55;;;;;;;3.88;1.98;;;;;;;11.81;100.00;100727.69;1249407;23;20046;-84
2022/09/14 01:04:27;;;;;;;2.10;1.50;;;;;;;11.85;100.00;100719.00;1250350;23;20296;-84
2022/09/14 01:04:58;;;;;;;4.53;1.63;;;;;;;11.77;100.00;100727.28;1250088;23;20296;-84
2022/09/14 01:05:50;;;;;;;11.38;3.60;;;;;;;11.74;100.00;100720.53;1250079;23;20316;-84
2022/09/14 01:06:35;;;;;;;1.58;1.48;;;;;;;11.72;100.00;100721.81;1237292;23;20021;-84
2022/09/14 01:07:10;;;;;;;3.10;2.25;;;;;;;11.79;100.00;100717.25;1250380;23;20351;-84
2022/09/14 01:07:42;;;;;;;6.05;3.55;;;;;;;11.80;100.00;100716.22;1255666;23;20262;-83
2022/09/14 01:08:29;;;;;;;3.92;1.88;;;;;;;11.81;100.00;100717.84;1257932;23;20349;-82
2022/09/14 01:09:13;;;;;;;5.65;2.22;;;;;;;11.80;100.00;100716.22;1265948;23;20689;-82
2022/09/14 01:09:50;;;;;;;4.03;1.92;;;;;;;11.86;100.00;100719.81;1267012;23;20266;-81
2022/09/14 01:10:44;;;;;;;3.55;2.08;;;;;;;11.86;100.00;100719.81;1267714;23;20563;-82
2022/09/14 01:11:37;;;;;;;6.72;2.47;;;;;;;11.87;100.00;100722.25;1267480;23;20010;-81
2022/09/14 01:12:28;;;;;;;5.50;2.45;;;;;;;11.85;100.00;100720.84;1267846;23;20266;-82
2022/09/14 01:13:06;;;;;;;2.67;2.13;;;;;;;11.88;100.00;100712.41;1267890;23;20253;-82
2022/09/14 01:13:53;;;;;;;8.02;2.17;;;;;;;11.91;100.00;100711.94;1267917;23;20045;-82
2022/09/14 01:14:31;;;;;;;2.70;1.77;;;;;;;11.92;100.00;100708.22;1267386;23;20260;-82
2022/09/14 01:15:21;;;;;;;5.75;3.20;;;;;;;11.94;100.00;100711.47;1261276;23;20254;-82
2022/09/14 01:16:02;;;;;;;4.25;2.00;;;;;;;11.92;100.00;100706.38;1253388;23;20349;-82
2022/09/14 01:16:55;;;;;;;6.00;2.15;;;;;;;11.89;100.00;100703.34;1248929;23;20519;-81
2022/09/14 01:17:49;;;;;;;3.47;1.65;;;;;;;11.84;100.00;100701.38;1249934;23;20248;-82
2022/09/14 01:18:42;;;;;;;3.03;2.13;;;;;;;11.79;100.00;100693.22;1258319;23;20258;-81
2022/09/14 01:19:37;;;;;;;3.47;2.13;;;;;;;11.76;100.00;100698.97;1256423;23;20258;-82
2022/09/14 01:20:13;;;;;;;4.97;1.92;;;;;;;11.72;100.00;100695.94;1249274;23;20255;-82
2022/09/14 01:21:05;;;;;;;5.38;2.22;;;;;;;11.67;100.00;100695.00;1249425;23;20565;-81
2022/09/14 01:21:37;;;;;;;2.08;1.88;;;;;;;11.64;100.00;100695.47;1255515;23;20255;-84
2022/09/14 01:22:16;;;;;;;3.95;2.65;;;;;;;11.60;100.00;100694.28;1261198;23;20258;-84
2022/09/14 01:23:16;;;;;;;3.25;2.70;;;;;;;11.54;100.00;100692.53;1247682;23;20266;-85
2022/09/14 01:23:56;;;;;;;2.90;1.73;;;;;;;11.48;100.00;100690.75;1257087;23;20314;-84
2022/09/14 01:24:55;;;;;;;6.93;2.17;;;;;;;11.43;100.00;100688.75;1259428;23;20255;-84
2022/09/14 01:26:17;;;;;;;5.07;2.15;;;;;;;11.35;100.00;100689.88;1254732;23;20026;-84
2022/09/14 01:26:58;;;;;;;8.35;2.40;;;;;;;11.28;100.00;100686.50;1255147;23;20305;-84
2022/09/14 01:27:40;;;;;;;9.15;2.55;;;;;;;11.30;100.00;100694.28;1255807;23;20035;-84
2022/09/14 01:28:21;;;;;;;3.97;2.75;;;;;;;11.28;100.00;100691.84;1271337;23;20021;-84
2022/09/14 01:29:11;;;;;;;4.40;2.88;;;;;;;11.31;100.00;100696.72;1267503;23;20349;-83
2022/09/14 01:29:58;;;;;;;10.35;2.92;;;;;;;11.42;100.00;100695.94;1267548;23;20249;-84
2022/09/14 01:30:31;;;;;;;4.22;1.90;;;;;;;11.43;100.00;100700.22;1256595;23;20299;-83
2022/09/14 01:31:12;;;;;;;6.15;2.22;;;;;;;11.45;100.00;100705.34;1255554;23;20274;-84
2022/09/14 01:31:49;;;;;;;4.05;2.30;;;;;;;11.49;100.00;100703.03;1255400;23;20307;-83
2022/09/14 01:32:26;;;;;;;6.53;2.58;;;;;;;11.55;100.00;100710.16;1255174;23;20015;-84
2022/09/14 01:33:16;;;;;;;4.18;2.13;;;;;;;11.56;100.00;100706.44;1259756;23;20258;-84
2022/09/14 01:33:54;;;;;;;4.65;2.22;;;;;;;11.60;100.00;100705.78;1261843;23;20279;-84
2022/09/14 01:34:39;;;;;;;2.28;1.90;;;;;;;11.58;100.00;100701.69;1256008;23;20255;-84
2022/09/14 01:35:30;;;;;;;2.33;1.70;;;;;;;11.54;100.00;100705.88;1255278;23;20251;-84
2022/09/14 01:36:05;;;;;;;4.30;2.03;;;;;;;11.51;100.00;100700.97;1256489;23;20447;-83
2022/09/14 01:36:39;;;;;;;6.80;2.08;;;;;;;11.48;100.00;100704.06;1247912;23;20442;-84
2022/09/14 01:37:24;;;;;;;2.75;1.90;;;;;;;11.45;100.00;100697.34;1247326;23;20271;-83
2022/09/14 01:38:03;;;;;;;3.00;2.50;;;;;;;11.43;100.00;100699.41;1254287;23;20258;-84
2022/09/14 01:38:41;;;;;;;2.13;1.73;;;;;;;11.38;100.00;100697.44;1254994;23;20257;-84
2022/09/14 01:39:13;;;;;;;4.38;2.53;;;;;;;11.37;100.00;100695.81;1259457;23;20491;-84
2022/09/14 01:39:51;;;;;;;4.22;2.83;;;;;;;11.37;100.00;100692.31;1255678;23;20255;-84
2022/09/14 01:40:35;;;;;;;2.88;2.20;;;;;;;11.37;100.00;100689.66;1252684;23;20259;-84
2022/09/14 01:41:11;;;;;;;1.98;1.10;;;;;;;11.37;100.00;100685.13;1249818;23;20572;-83
2022/09/14 01:41:43;;;;;;;4.88;2.28;;;;;;;11.35;100.00;100681.88;1260597;23;20655;-84
2022/09/14 01:42:16;;;;;;;3.63;2.25;;;;;;;11.32;100.00;100685.00;1259890;23;20377;-84
2022/09/14 01:42:53;;;;;;;2.65;2.45;;;;;;;11.31;100.00;100690.56;1263289;23;20309;-83
2022/09/14 01:43:38;;;;;;;4.03;2.45;;;;;;;11.29;100.00;100693.47;1259311;23;20261;-84
2022/09/14 01:44:17;;;;;;;7.93;3.08;;;;;;;11.34;100.00;100692.78;1254485;23;20258;-83
2022/09/14 01:44:53;;;;;;;4.75;2.35;;;;;;;11.35;100.00;100686.41;1255891;23;20255;-84
2022/09/14 01:45:27;;;;;;;3.80;2.67;;;;;;;11.34;100.00;100685.59;1255119;23;20307;-84
2022/09/14 01:46:04;;;;;;;4.65;2.85;;;;;;;11.40;100.00;100690.03;1249587;23;20275;-83
2022/09/14 01:46:41;;;;;;;8.45;3.22;;;;;;;11.42;100.00;100693.28;1246993;23;20275;-84
2022/09/14 01:47:19;;;;;;;4.28;3.13;;;;;;;11.45;100.00;100687.47;1252797;23;20821;-83
2022/09/14 01:47:54;;;;;;;3.15;2.75;;;;;;;11.48;100.00;100688.88;1259358;23;20261;-84
2022/09/14 01:48:31;;;;;;;3.72;3.00;;;;;;;11.53;100.00;100691.72;1258946;23;20259;-84
2022/09/14 01:49:10;;;;;;;5.40;3.20;;;;;;;11.66;100.00;100690.69;1258008;23;20250;-84
2022/09/14 01:49:46;;;;;;;6.20;2.85;;;;;;;11.62;100.00;100692.19;1248997;23;20264;-83
2022/09/14 01:50:30;;;;;;;3.08;2.45;;;;;;;11.63;100.00;100696.50;1253817;23;20251;-83
2022/09/14 01:51:07;;;;;;;3.63;2.88;;;;;;;11.59;100.00;100688.13;1249218;23;20259;-83
2022/09/14 01:51:57;;;;;;;6.78;3.80;;;;;;;11.60;100.00;100695.09;1253638;23;20282;-84
2022/09/14 01:52:34;;;;;;;9.32;3.50;;;;;;;11.67;100.00;100687.00;1243691;23;20585;-83
2022/09/14 01:53:13;;;;;;;3.47;3.15;;;;;;;11.67;100.00;100689.66;1259493;23;20611;-83
2022/09/14 01:53:47;;;;;;;5.07;3.40;;;;;;;11.64;100.00;100684.78;1261229;23;20337;-83
2022/09/14 01:54:26;;;;;;;2.83;2.55;;;;;;;11.63;100.00;100688.50;1255521;23;20295;-84
2022/09/14 01:55:03;;;;;;;3.55;2.58;;;;;;;11.62;100.00;100687.69;1257405;23;20305;-83
2022/09/14 01:55:58;;;;;;;7.80;3.10;;;;;;;11.66;100.00;100688.84;1249600;23;20666;-84
2022/09/14 01:56:37;;;;;;;4.13;2.72;;;;;;;11.72;100.00;100687.94;1255314;23;20270;-83
2022/09/14 01:57:34;;;;;;;6.95;3.20;;;;;;;11.77;100.00;100689.91;1254060;23;20278;-83
2022/09/14 01:58:10;;;;;;;5.28;3.15;;;;;;;11.83;100.00;100689.06;1244536;23;20408;-80
2022/09/14 01:59:04;;;;;;;3.65;3.25;;;;;;;11.82;100.00;100684.75;1253454;23;20271;-80
2022/09/14 01:59:42;;;;;;;7.18;2.50;;;;;;;11.72;100.00;100689.78;1259584;23;20274;-80
2022/09/14 02:00:18;;;;;;;7.60;3.03;;;;;;;11.77;100.00;100688.06;1247003;23;20326;-80
2022/09/14 02:00:51;;;;;;;5.57;2.75;;;;;;;11.75;100.00;100681.31;1249858;23;20019;-80
2022/09/14 02:01:27;;;;;;;6.65;2.97;;;;;;;11.77;100.00;100689.91;1258576;23;20265;-80
2022/09/14 02:02:08;;;;;;;4.60;2.58;;;;;;;11.74;100.00;100685.84;1267750;23;20264;-80
2022/09/14 02:02:46;;;;;;;7.18;2.45;;;;;;;11.72;100.00;100681.78;1273922;23;20792;-80
2022/09/14 02:03:25;;;;;;;5.72;2.75;;;;;;;11.72;100.00;100687.13;1254675;23;20271;-80
2022/09/14 02:04:01;;;;;;;2.60;2.05;;;;;;;11.68;100.00;100683.28;1247601;23;20263;-79
2022/09/14 02:04:40;;;;;;;5.00;2.67;;;;;;;11.70;100.00;100681.19;1249368;23;20258;-79
2022/09/14 02:05:13;;;;;;;7.43;2.83;;;;;;;11.70;100.00;100678.53;1249881;23;20263;-79
2022/09/14 02:05:57;;;;;;;3.47;2.08;;;;;;;11.68;100.00;100686.75;1247013;23;20268;-79
2022/09/14 02:06:36;;;;;;;3.97;2.30;;;;;;;11.68;100.00;100678.75;1253700;23;20294;-80
2022/09/14 02:07:08;;;;;;;4.90;2.55;;;;;;;11.71;100.00;100688.16;1255822;23;20254;-80
2022/09/14 02:07:39;;;;;;;4.20;2.40;;;;;;;11.76;100.00;100686.44;1254253;23;20294;-79
2022/09/14 02:08:11;;;;;;;4.15;3.17;;;;;;;11.78;100.00;100680.94;1255488;23;20255;-79
2022/09/14 02:08:43;;;;;;;3.85;2.15;;;;;;;11.84;100.00;100679.19;1249361;23;20299;-79
2022/09/14 02:09:20;;;;;;;5.25;3.00;;;;;;;11.90;100.00;100679.09;1255633;23;20255;-79
2022/09/14 02:09:53;;;;;;;5.90;3.22;;;;;;;11.91;100.00;100680.72;1255546;23;20644;-79
2022/09/14 02:10:28;;;;;;;6.20;2.35;;;;;;;11.94;100.00;100685.59;1249656;23;20260;-80
2022/09/14 02:11:00;;;;;;;5.78;2.78;;;;;;;11.93;100.00;100683.97;1252536;23;20263;-80
2022/09/14 02:11:31;;;;;;;3.28;2.80;;;;;;;11.90;100.00;100684.44;1251487;23;20283;-80
2022/09/14 02:12:03;;;;;;;4.93;2.65;;;;;;;11.90;100.00;100679.09;1251032;23;20262;-79
2022/09/14 02:12:35;;;;;;;8.68;2.70;;;;;;;11.92;100.00;100686.88;1249358;23;20259;-80
2022/09/14 02:13:07;;;;;;;4.43;3.30;;;;;;;11.90;100.00;100681.75;1256408;23;20259;-80
2022/09/14 02:13:38;;;;;;;3.83;3.17;;;;;;;11.88;100.00;100681.19;1253533;23;20455;-79
2022/09/14 02:14:10;;;;;;;4.43;3.25;;;;;;;11.85;100.00;100686.16;1256111;23;20318;-80
2022/09/14 02:14:46;;;;;;;5.10;3.28;;;;;;;11.84;100.00;100685.34;1254966;23;20327;-79
2022/09/14 02:15:18;;;;;;;3.38;2.53;;;;;;;11.85;100.00;100675.50;1246821;23;20311;-79
2022/09/14 02:15:49;;;;;;;3.47;3.05;;;;;;;11.87;100.00;100678.75;1241221;23;20343;-80
2022/09/14 02:16:22;;;;;;;8.68;2.70;;;;;;;11.81;100.00;100675.13;1245054;23;20261;-80
2022/09/14 02:16:53;;;;;;;6.93;2.67;;;;;;;11.87;100.00;100671.53;1249545;23;20256;-79
2022/09/14 02:17:25;;;;;;;4.53;3.05;;;;;;;11.89;100.00;100682.81;1250352;23;20256;-79
2022/09/14 02:17:57;;;;;;;4.85;2.95;;;;;;;11.90;100.00;100676.41;1250761;23;20015;-79
2022/09/14 02:18:29;;;;;;;3.25;2.92;;;;;;;11.91;100.00;100679.91;1255354;23;20263;-80
2022/09/14 02:19:01;;;;;;;9.30;2.80;;;;;;;11.90;100.00;100684.44;1249532;23;20256;-80
2022/09/14 02:19:39;;;;;;;5.55;2.88;;;;;;;11.89;100.00;100680.13;1251288;23;20263;-80
2022/09/14 02:20:20;;;;;;;3.38;2.80;;;;;;;11.92;100.00;100681.53;1255497;23;20035;-79
2022/09/14 02:21:04;;;;;;;5.75;2.58;;;;;;;11.95;100.00;100681.88;1254840;23;20259;-79
2022/09/14 02:21:37;;;;;;;2.60;2.40;;;;;;;11.99;100.00;100683.03;1255605;23;20071;-80
2022/09/14 02:22:08;;;;;;;7.80;3.28;;;;;;;11.94;100.00;100684.78;1254270;23;20277;-79
2022/09/14 02:22:41;;;;;;;6.05;2.70;;;;;;;11.92;100.00;100676.19;1255485;23;20255;-79
2022/09/14 02:23:15;;;;;;;4.03;2.83;;;;;;;11.98;100.00;100681.41;1257057;23;20261;-79
2022/09/14 02:23:48;;;;;;;5.78;2.70;;;;;;;12.02;100.00;100679.91;1247528;23;20268;-79
2022/09/14 02:24:19;;;;;;;3.42;2.63;;;;;;;12.02;100.00;100677.25;1253656;23;20354;-79
2022/09/14 02:24:51;;;;;;;5.18;3.13;;;;;;;12.04;100.00;100680.50;1255341;23;20259;-79
2022/09/14 02:25:23;;;;;;;6.25;3.17;;;;;;;12.08;100.00;100678.22;1253287;23;20271;-79
2022/09/14 02:25:57;;;;;;;9.70;2.97;;;;;;;12.09;100.00;100681.69;1254808;23;20387;-80
2022/09/14 02:26:28;;;;;;;5.50;2.70;;;;;;;12.09;100.00;100676.34;1249080;23;20601;-79
2022/09/14 02:27:01;;;;;;;5.45;3.05;;;;;;;12.07;100.00;100666.72;1244971;23;20300;-79
2022/09/14 02:27:32;;;;;;;6.72;3.38;;;;;;;12.02;100.00;100674.56;1255504;23;20263;-79
2022/09/14 02:28:04;;;;;;;3.85;3.03;;;;;;;11.99;100.00;100671.56;1250395;23;20320;-80
2022/09/14 02:28:35;;;;;;;6.95;2.90;;;;;;;11.95;100.00;100673.88;1251437;23;20844;-80
2022/09/14 02:29:07;;;;;;;6.47;3.78;;;;;;;11.93;100.00;100667.16;1254755;23;20262;-79
2022/09/14 02:29:39;;;;;;;5.20;3.72;;;;;;;11.90;100.00;100668.41;1244101;23;20324;-79
2022/09/14 02:30:11;;;;;;;7.10;2.75;;;;;;;11.88;100.00;100675.84;1244249;23;20304;-80
2022/09/14 02:30:59;;;;;;;4.88;3.50;;;;;;;11.83;100.00;100670.38;1244560;23;20284;-79
2022/09/14 02:31:37;;;;;;;4.20;3.00;;;;;;;11.79;100.00;100666.53;1251596;23;20299;-79
2022/09/14 02:32:39;;;;;;;3.80;3.00;;;;;;;11.73;100.00;100667.41;1261334;23;20259;-79
2022/09/14 02:33:52;;;;;;;3.15;2.80;;;;;;;11.66;100.00;100666.69;1268873;23;20341;-79
2022/09/14 02:34:45;;;;;;;3.85;3.55;;;;;;;11.61;100.00;100656.72;1246707;23;20024;-79
2022/09/14 02:35:22;;;;;;;4.75;2.97;;;;;;;11.60;100.00;100656.94;1253555;23;20322;-79
2022/09/14 02:35:55;;;;;;;4.07;3.08;;;;;;;11.59;100.00;100664.13;1249106;23;20299;-79
2022/09/14 02:36:55;;;;;;;8.55;3.10;;;;;;;11.55;100.00;100662.16;1255464;23;20252;-79
2022/09/14 02:37:31;;;;;;;5.03;3.17;;;;;;;11.52;100.00;100658.09;1255559;23;20259;-79
2022/09/14 02:38:16;;;;;;;5.80;3.67;;;;;;;11.51;100.00;100655.63;1261519;23;20703;-79
2022/09/14 02:39:32;;;;;;;4.93;3.30;;;;;;;11.50;100.00;100657.47;1255564;23;20261;-78
2022/09/14 02:40:28;;;;;;;7.50;3.08;;;;;;;11.50;100.00;100656.66;1254948;23;20662;-78
2022/09/14 02:41:06;;;;;;;5.93;3.15;;;;;;;11.49;100.00;100655.03;1253126;23;20813;-78
2022/09/14 02:41:47;;;;;;;3.80;3.35;;;;;;;11.49;100.00;100655.84;1249546;23;20256;-78
2022/09/14 02:42:29;;;;;;;6.38;3.20;;;;;;;11.49;100.00;100650.50;1249268;23;20270;-78
2022/09/14 02:43:22;;;;;;;3.92;3.20;;;;;;;11.49;100.00;100658.50;1252982;23;20259;-78
2022/09/14 02:44:19;;;;;;;9.05;3.72;;;;;;;11.47;100.00;100649.91;1255818;23;20264;-78
2022/09/14 02:45:13;;;;;;;8.77;5.18;;;;;;;11.45;100.00;100644.81;1259260;23;20258;-78
2022/09/14 02:46:00;;;;;;;8.70;3.78;;;;;;;11.43;100.00;100646.91;1253382;23;20731;-79
2022/09/14 02:46:42;;;;;;;6.38;3.53;;;;;;;11.45;100.00;100650.16;1254400;23;20271;-78
2022/09/14 02:47:22;;;;;;;3.65;3.30;;;;;;;11.44;100.00;100643.19;1255430;23;20261;-79
2022/09/14 02:48:18;;;;;;;5.80;4.20;;;;;;;11.44;100.00;100643.19;1261462;23;20270;-78
2022/09/14 02:49:10;;;;;;;4.78;3.80;;;;;;;11.51;100.00;100642.31;1268581;23;20733;-78
2022/09/14 02:49:55;;;;;;;7.20;3.53;;;;;;;11.58;100.00;100645.69;1257378;23;20429;-78
2022/09/14 02:50:39;;;;;;;7.95;4.05;;;;;;;11.63;100.00;100651.13;1262328;23;20298;-78
2022/09/14 02:51:19;;;;;;;5.65;2.97;;;;;;;11.67;100.00;100646.97;1267704;23;20590;-78
2022/09/14 02:52:00;;;;;;;6.32;4.05;;;;;;;11.73;100.00;100651.38;1267823;23;20372;-78